createdAt,value
2023-05-11T00:08:34.731Z,2.6
2023-05-11T00:15:06.032Z,1.5
2023-05-11T00:21:26.123Z,2.8
2023-05-11T00:27:41.642Z,2
2023-05-11T00:33:57.673Z,2.9
2023-05-11T00:46:38.794Z,2
2023-05-11T00:52:44.839Z,2.2
2023-05-11T00:58:39.762Z,2.8
2023-05-11T01:36:45.631Z,4.4
2023-05-11T02:23:02.793Z,4.9
2023-05-11T02:29:41.593Z,2.1
2023-05-11T02:36:11.459Z,2.6
2023-05-11T02:55:42.667Z,3.4
2023-05-11T03:01:37.710Z,4
2023-05-11T03:07:32.312Z,2.3
2023-05-11T03:13:36.254Z,1.9
2023-05-11T03:19:28.270Z,2.2
2023-05-11T03:25:30.366Z,1.1
2023-05-11T03:31:22.161Z,3.3
2023-05-11T03:37:17.345Z,3.6
2023-05-11T03:43:10.282Z,5.5
2023-05-11T03:49:03.942Z,4.5
2023-05-11T03:54:56.904Z,2
2023-05-11T04:00:49.796Z,2.6
2023-05-11T04:06:43.147Z,3.7
2023-05-11T04:12:36.500Z,3.6
2023-05-11T04:18:33.611Z,5.2
2023-05-11T04:24:33.312Z,3.3
2023-05-11T04:30:29.453Z,4
2023-05-11T04:36:22.047Z,4
2023-05-11T04:42:24.726Z,4.5
2023-05-11T04:48:29.962Z,2.4
2023-05-11T04:54:23.008Z,2.9
2023-05-11T05:00:14.780Z,5
2023-05-11T05:06:04.446Z,2.1
2023-05-11T05:11:55.582Z,3.4
2023-05-11T05:17:46.529Z,3
2023-05-11T05:23:37.335Z,3.9
2023-05-11T05:29:28.254Z,2.3
2023-05-11T05:35:21.793Z,4.1
2023-05-11T05:41:11.721Z,2.6
2023-05-11T05:47:02.867Z,3.9
2023-05-11T05:52:52.812Z,7.5
2023-05-11T05:58:45.242Z,5.2
2023-05-11T06:04:35.830Z,5.4
2023-05-11T06:10:27.633Z,9.1
2023-05-11T06:16:18.909Z,6.2
2023-05-11T06:22:12.922Z,7.9
2023-05-11T06:28:03.924Z,6.3
2023-05-11T06:33:55.156Z,8.8
2023-05-11T06:39:46.524Z,9.7
2023-05-11T06:45:39.035Z,8.7
2023-05-11T06:51:30.447Z,14.5
2023-05-11T06:57:21.571Z,12.2
2023-05-11T07:03:12.523Z,9.6
2023-05-11T07:09:03.908Z,13.7
2023-05-11T07:14:54.728Z,12.3
2023-05-11T07:20:46.947Z,17.2
2023-05-11T07:26:38.238Z,15
2023-05-11T07:32:30.767Z,19.8
2023-05-11T07:38:23.100Z,17.2
2023-05-11T07:44:16.385Z,17.4
2023-05-11T07:50:10.105Z,20.3
2023-05-11T07:56:02.175Z,18.3
2023-05-11T08:01:53.522Z,21.6
2023-05-11T08:07:47.338Z,22.5
2023-05-11T08:13:38.709Z,20.1
2023-05-11T08:19:30.665Z,23
2023-05-11T08:25:23.233Z,25.5
2023-05-11T08:31:13.840Z,25.2
2023-05-11T08:37:07.090Z,25.2
2023-05-11T08:42:58.580Z,23.6
2023-05-11T08:48:52.477Z,27.2
2023-05-11T08:54:45.979Z,27.4
2023-05-11T09:00:41.549Z,26.7
2023-05-11T09:06:33.133Z,29.2
2023-05-11T09:12:23.796Z,26.5
2023-05-11T09:18:14.858Z,27.7
2023-05-11T09:24:07.453Z,29.1
2023-05-11T09:29:59.725Z,27
2023-05-11T09:35:53.832Z,28.7
2023-05-11T09:41:52.567Z,25.9
2023-05-11T09:47:43.695Z,26.6
2023-05-11T09:53:42.816Z,26.4
2023-05-11T09:59:32.768Z,26.1
2023-05-11T10:05:38.662Z,28.5
2023-05-11T10:11:37.072Z,25.4
2023-05-11T10:17:27.788Z,25.6
2023-05-11T10:23:19.472Z,24
2023-05-11T10:29:10.056Z,22.8
2023-05-11T10:34:59.831Z,21.7
2023-05-11T10:40:49.763Z,21.6
2023-05-11T10:46:37.906Z,20.9
2023-05-11T10:52:29.569Z,21.7
2023-05-11T10:58:21.275Z,20.8
2023-05-11T11:04:13.641Z,18.4
2023-05-11T11:10:04.557Z,19
2023-05-11T11:15:57.358Z,18.8
2023-05-11T11:22:06.923Z,20.8
2023-05-11T11:34:16.079Z,16
2023-05-11T11:40:23.482Z,18
2023-05-11T11:46:57.055Z,18.2
2023-05-11T11:53:01.532Z,17.9
2023-05-11T11:58:55.333Z,17.2
2023-05-11T12:04:49.947Z,20.7
2023-05-11T12:10:42.983Z,19.7
2023-05-11T12:16:36.200Z,19.1
2023-05-11T12:22:28.994Z,18.1
2023-05-11T12:28:24.039Z,18.7
2023-05-11T12:34:16.866Z,17
2023-05-11T12:40:11.025Z,17.1
2023-05-11T12:46:04.049Z,18.9
2023-05-11T12:51:56.117Z,15.3
2023-05-11T12:57:49.960Z,17.2
2023-05-11T13:03:46.001Z,13.3
2023-05-11T13:09:47.201Z,16.9
2023-05-11T13:15:44.719Z,15.2
2023-05-11T13:21:39.115Z,14.3
2023-05-11T13:27:32.528Z,14.9
2023-05-11T13:33:25.871Z,18.5
2023-05-11T13:39:25.060Z,16.3
2023-05-11T13:45:17.385Z,16.4
2023-05-11T13:51:08.731Z,18.1
2023-05-11T13:56:58.721Z,16.2
2023-05-11T14:02:53.115Z,17.8
2023-05-11T14:08:43.814Z,17.6
2023-05-11T14:14:35.743Z,19.3
2023-05-11T14:20:29.459Z,22.7
2023-05-11T14:26:20.174Z,22.4
2023-05-11T14:32:14.655Z,21.6
2023-05-11T14:38:07.719Z,24.9
2023-05-11T14:44:00.708Z,22.5
2023-05-11T14:49:54.043Z,23.8
2023-05-11T14:55:46.373Z,26
2023-05-11T15:01:38.308Z,32.5
2023-05-11T15:07:30.377Z,30.3
2023-05-11T15:13:25.945Z,27.8
2023-05-11T15:19:17.615Z,26.3
2023-05-11T15:25:10.787Z,26.4
2023-05-11T15:31:03.697Z,31.8
2023-05-11T15:36:56.170Z,26.1
2023-05-11T15:42:48.612Z,26.8
2023-05-11T15:48:40.918Z,27.5
2023-05-11T15:54:34.588Z,27.9
2023-05-11T16:00:28.461Z,28.5
2023-05-11T16:06:20.677Z,30
2023-05-11T16:12:12.974Z,31
2023-05-11T16:18:09.596Z,30.2
2023-05-11T16:24:02.318Z,37.5
2023-05-11T16:29:55.177Z,40.2
2023-05-11T16:35:48.073Z,34.1
2023-05-11T16:41:42.566Z,42.7
2023-05-11T16:47:35.466Z,40.4
2023-05-11T16:53:28.727Z,38.6
2023-05-11T16:59:20.962Z,37.9
2023-05-11T17:05:14.792Z,38.8
2023-05-11T17:11:07.906Z,42.3
2023-05-11T17:16:59.223Z,44.3
2023-05-11T17:22:52.104Z,41.1
2023-05-11T17:28:43.603Z,42.4
2023-05-11T17:34:36.162Z,43.7
2023-05-11T17:40:29.401Z,45.4
2023-05-11T17:46:21.882Z,31.5
2023-05-11T17:52:13.953Z,17.6
2023-05-11T17:58:06.278Z,13.7
2023-05-11T18:03:59.726Z,14.8
2023-05-11T18:09:53.149Z,16.6
2023-05-11T18:15:45.586Z,22.8
2023-05-11T18:21:37.154Z,19.4
2023-05-11T18:27:29.664Z,22.9
2023-05-11T18:33:22.031Z,22.8
2023-05-11T18:39:15.450Z,21.2
2023-05-11T18:45:07.162Z,22.1
2023-05-11T18:51:01.338Z,23.3
2023-05-11T18:56:53.123Z,23.5
2023-05-11T19:02:44.704Z,22.8
2023-05-11T19:08:37.710Z,22.9
2023-05-11T19:14:30.041Z,24.7
2023-05-11T19:20:23.461Z,23.8
2023-05-11T19:26:15.580Z,23.5
2023-05-11T19:32:08.297Z,27.1
2023-05-11T19:38:00.757Z,24.5
2023-05-11T19:43:53.108Z,26.5
2023-05-11T19:49:45.720Z,26
2023-05-11T19:55:40.247Z,28.6
2023-05-11T20:01:31.935Z,28.6
2023-05-11T20:07:25.169Z,29.3
2023-05-11T20:13:19.882Z,28.5
2023-05-11T20:19:12.957Z,29.6
2023-05-11T20:25:14.067Z,30.1
2023-05-11T20:31:08.566Z,30.6
2023-05-11T20:38:08.241Z,32.5
2023-05-11T20:44:04.112Z,35.6
2023-05-11T20:49:56.552Z,39.2
2023-05-11T20:55:51.784Z,40.5
2023-05-11T21:01:46.488Z,41
2023-05-11T21:07:39.801Z,40.4
2023-05-11T21:13:32.501Z,39.6
2023-05-11T21:19:24.710Z,39.8
2023-05-11T21:25:18.170Z,36.1
2023-05-11T21:31:10.493Z,38.5
2023-05-11T21:37:02.883Z,39.4
2023-05-11T21:42:55.515Z,38.2
2023-05-11T21:48:49.164Z,40.4
2023-05-11T21:54:42.877Z,40.7
2023-05-11T22:00:35.032Z,43.3
2023-05-11T22:06:27.711Z,44
2023-05-11T22:12:20.791Z,46.4
2023-05-11T22:18:15.608Z,53.4
2023-05-11T22:24:12.290Z,55
2023-05-11T22:30:12.366Z,59.5
2023-05-11T22:36:03.213Z,66.2
2023-05-11T22:41:55.986Z,66.5
2023-05-11T22:47:47.523Z,69.1
2023-05-11T22:53:37.308Z,66.6
2023-05-11T22:59:27.243Z,62.8
2023-05-11T23:05:20.317Z,60.5
2023-05-11T23:11:11.843Z,61
2023-05-11T23:17:09.127Z,60.4
2023-05-11T23:23:05.184Z,61.5
2023-05-11T23:28:59.143Z,50.7
2023-05-11T23:34:48.537Z,51.5
2023-05-11T23:40:40.068Z,44.5
2023-05-11T23:46:33.155Z,43.8
2023-05-11T23:52:26.633Z,46.6
2023-05-11T23:58:18.003Z,45.2
